Terminal Aerodrome Forecast
Issued by NWS Sioux Falls, SD

Home | Current Version | Previous Version | Text Only | Print | Product List | Glossary On
Versions: 1 2 3 4 5 6 7 8 9 10 11 12 13 14 15
000
FTUS43 KFSD 151700
TAFFSD
TAF
KFSD 151726Z 1518/1618 17012KT P6SM FEW250
     FM152000 17016G22KT P6SM SCT120
     FM152300 15018G26KT P6SM BKN120
     FM160600 14015KT P6SM SCT080 BKN100 WS010/20040KT
     FM161200 17012KT P6SM OVC060
     FM161600 31017G25KT P6SM BKN020=

USA.gov is the U.S. government's official web portal to all federal, state and local government web resources and services.